Time;durP1;ratioP1;P1;durP2;ratioP2;P2;SDS_P1;SDS_P2;PMS_P1;PMS_P2;Temp;Humidity;BMP_temperature;BMP_pressure;BME280_temperature;BME280_humidity;BME280_pressure;Samples;Min_cycle;Max_cycle;Signal;HPM_P1;HPM_P2
2021/09/05 00:01:39;;;;;;;6.40;4.68;;;;;;;17.98;56.65;97489.09;5035575;28;20029;-44
2021/09/05 00:04:05;;;;;;;6.93;5.00;;;;;;;18.03;56.70;97493.69;5044660;28;20025;-46
2021/09/05 00:06:30;;;;;;;7.53;5.03;;;;;;;17.96;56.81;97491.34;5044684;28;20032;-41
2021/09/05 00:08:56;;;;;;;7.53;5.18;;;;;;;17.83;57.09;97492.88;5063560;28;20098;-43
2021/09/05 00:11:21;;;;;;;10.45;5.45;;;;;;;17.83;56.99;97490.16;5044733;28;20044;-44
2021/09/05 00:13:46;;;;;;;7.30;4.97;;;;;;;17.70;57.33;97488.97;5044852;28;20038;-44
2021/09/05 00:16:12;;;;;;;7.45;4.88;;;;;;;17.61;57.58;97491.56;5045735;28;20025;-40
2021/09/05 00:18:37;;;;;;;8.00;5.63;;;;;;;17.52;58.18;97488.69;5044280;28;20017;-44
2021/09/05 00:21:03;;;;;;;9.07;5.03;;;;;;;17.59;57.88;97492.97;5042247;28;20029;-42
2021/09/05 00:23:28;;;;;;;9.65;4.32;;;;;;;17.53;57.97;97486.75;5044625;28;20040;-41
2021/09/05 00:25:53;;;;;;;7.25;4.50;;;;;;;17.47;58.03;97486.00;5043299;28;20025;-43
2021/09/05 00:28:19;;;;;;;6.97;4.38;;;;;;;17.52;57.98;97480.47;5044312;28;20036;-42
2021/09/05 00:30:44;;;;;;;7.43;4.82;;;;;;;17.59;57.70;97482.84;5043622;28;20036;-42
2021/09/05 00:33:09;;;;;;;7.25;5.05;;;;;;;17.86;56.75;97480.53;5042098;28;20025;-41
2021/09/05 00:35:35;;;;;;;7.32;4.57;;;;;;;18.00;56.15;97484.16;5023994;28;20013;-41
2021/09/05 00:38:01;;;;;;;6.70;4.20;;;;;;;17.76;56.80;97482.31;5033677;28;20052;-41
2021/09/05 00:40:26;;;;;;;8.95;4.60;;;;;;;17.68;57.11;97482.97;5044508;28;20039;-43
2021/09/05 00:42:51;;;;;;;8.25;5.55;;;;;;;17.63;57.22;97483.06;5029084;28;20629;-41
2021/09/05 00:45:17;;;;;;;7.35;4.63;;;;;;;17.42;57.72;97483.34;5035969;28;20604;-40
2021/09/05 00:47:42;;;;;;;7.43;5.05;;;;;;;17.49;57.76;97481.06;5043492;28;20021;-40
2021/09/05 00:50:08;;;;;;;6.85;5.00;;;;;;;17.57;57.72;97482.31;5042261;28;20040;-43
2021/09/05 00:52:33;;;;;;;7.60;4.88;;;;;;;17.51;57.65;97480.75;5043716;28;20032;-45
2021/09/05 00:54:59;;;;;;;7.50;5.03;;;;;;;17.35;58.19;97480.97;5041941;28;20324;-43
2021/09/05 00:57:24;;;;;;;8.30;4.47;;;;;;;17.32;58.09;97487.00;5042207;28;20021;-43
2021/09/05 00:59:50;;;;;;;8.45;4.55;;;;;;;17.44;57.93;97486.59;5043054;28;20025;-42
2021/09/05 01:02:16;;;;;;;6.15;3.85;;;;;;;17.43;57.93;97490.44;5042989;28;20051;-42
2021/09/05 01:04:42;;;;;;;6.80;4.53;;;;;;;17.40;57.83;97494.56;5043934;28;20101;-41
2021/09/05 01:07:08;;;;;;;7.70;4.93;;;;;;;17.32;57.91;97489.75;5042560;28;20746;-44
2021/09/05 01:09:34;;;;;;;8.68;4.40;;;;;;;17.65;57.06;97494.50;5043975;28;20021;-41
2021/09/05 01:12:00;;;;;;;6.47;4.82;;;;;;;17.39;57.68;97487.47;5043756;28;20024;-41
2021/09/05 01:14:26;;;;;;;6.40;4.18;;;;;;;17.23;58.23;97489.59;5042612;28;20104;-42
2021/09/05 01:16:52;;;;;;;8.13;4.63;;;;;;;17.16;58.51;97491.88;5045195;28;20400;-42
2021/09/05 01:19:20;;;;;;;7.65;4.60;;;;;;;17.11;58.38;97481.81;5043068;28;20060;-41
2021/09/05 01:21:47;;;;;;;7.28;4.28;;;;;;;17.14;58.42;97489.41;5043739;28;20031;-44
2021/09/05 01:24:13;;;;;;;6.53;4.13;;;;;;;17.44;57.47;97489.34;5044262;28;20108;-40
2021/09/05 01:26:41;;;;;;;7.63;4.57;;;;;;;17.30;57.69;97489.25;5042828;28;20033;-41
2021/09/05 01:29:08;;;;;;;6.82;4.35;;;;;;;17.12;58.53;97488.91;5043187;28;20104;-42
2021/09/05 01:31:40;;;;;;;9.48;4.55;;;;;;;17.05;58.39;97493.09;5045007;28;20727;-40
2021/09/05 01:34:07;;;;;;;7.32;4.20;;;;;;;16.98;58.79;97491.50;5047305;28;20055;-41
2021/09/05 01:36:33;;;;;;;7.07;4.55;;;;;;;17.08;58.17;97487.88;5046843;28;20017;-42
2021/09/05 01:38:59;;;;;;;7.70;4.32;;;;;;;17.18;57.91;97491.59;5047301;28;20086;-42
2021/09/05 01:41:24;;;;;;;7.53;3.90;;;;;;;17.08;58.09;97489.78;5046522;28;20029;-42
2021/09/05 01:43:50;;;;;;;8.00;4.85;;;;;;;17.25;57.71;97487.38;5046983;28;20359;-42
2021/09/05 01:46:15;;;;;;;8.15;4.55;;;;;;;17.61;56.62;97497.03;5048308;28;20028;-41
2021/09/05 01:48:40;;;;;;;8.15;4.22;;;;;;;17.74;55.82;97500.16;5044581;28;20063;-42
2021/09/05 01:51:06;;;;;;;7.15;4.10;;;;;;;17.75;55.92;97499.03;5047102;28;20033;-40
2021/09/05 01:53:31;;;;;;;7.30;4.75;;;;;;;17.74;55.86;97509.19;5046843;28;20020;-41
2021/09/05 01:55:56;;;;;;;7.65;4.40;;;;;;;17.73;55.86;97506.75;5047021;28;20112;-41
2021/09/05 01:58:24;;;;;;;7.90;4.30;;;;;;;17.65;56.14;97510.94;5045987;28;20593;-41
2021/09/05 02:00:49;;;;;;;7.00;4.88;;;;;;;17.29;57.27;97514.97;5046527;28;20097;-42
2021/09/05 02:03:14;;;;;;;9.60;4.65;;;;;;;17.31;57.55;97511.97;5047267;28;20512;-42
2021/09/05 02:05:40;;;;;;;7.10;4.15;;;;;;;17.67;56.50;97514.22;5046040;28;20056;-43
2021/09/05 02:08:05;;;;;;;6.20;4.22;;;;;;;17.88;55.95;97514.72;5052561;28;20029;-43
2021/09/05 02:10:31;;;;;;;8.40;4.22;;;;;;;17.84;56.21;97518.38;5045795;28;20032;-42
2021/09/05 02:12:56;;;;;;;9.27;4.50;;;;;;;17.94;55.84;97523.69;5046557;28;20043;-42
2021/09/05 02:15:22;;;;;;;6.15;4.20;;;;;;;17.79;56.24;97522.81;5045763;28;20048;-41
2021/09/05 02:17:47;;;;;;;9.48;4.93;;;;;;;17.46;56.84;97513.69;5046891;28;20025;-42
2021/09/05 02:20:12;;;;;;;7.88;4.03;;;;;;;17.13;58.23;97522.53;5045874;28;20491;-43
2021/09/05 02:22:37;;;;;;;8.15;4.82;;;;;;;17.37;57.46;97522.56;5046753;28;20079;-41
2021/09/05 02:25:03;;;;;;;7.20;4.28;;;;;;;17.71;56.57;97519.91;5045463;28;20056;-42
2021/09/05 02:27:29;;;;;;;6.60;4.25;;;;;;;17.95;56.02;97519.84;5046129;28;20033;-44
2021/09/05 02:29:54;;;;;;;6.03;4.50;;;;;;;17.98;55.71;97532.13;5047141;28;20033;-43
2021/09/05 02:32:19;;;;;;;7.47;4.30;;;;;;;18.06;55.70;97529.53;5045742;28;20043;-41
2021/09/05 02:34:45;;;;;;;7.47;4.07;;;;;;;17.95;55.82;97530.81;5046703;28;20119;-43
2021/09/05 02:37:10;;;;;;;6.97;4.22;;;;;;;17.78;56.33;97529.41;5045826;28;20623;-44
2021/09/05 02:39:36;;;;;;;8.23;4.55;;;;;;;17.32;57.39;97519.84;5046015;28;20021;-41
2021/09/05 02:42:01;;;;;;;9.48;5.40;;;;;;;17.25;57.75;97524.88;5042374;28;20067;-41
2021/09/05 02:44:27;;;;;;;7.40;4.70;;;;;;;17.28;57.46;97530.56;5037326;28;20112;-41
2021/09/05 02:46:52;;;;;;;7.50;4.78;;;;;;;17.18;57.98;97524.41;5036791;28;20025;-42
2021/09/05 02:49:17;;;;;;;7.35;4.65;;;;;;;17.28;57.59;97521.53;5046073;28;20642;-41
2021/09/05 02:51:43;;;;;;;6.63;4.38;;;;;;;17.63;56.57;97527.69;5045227;28;20085;-42
2021/09/05 02:54:09;;;;;;;6.40;3.90;;;;;;;17.74;56.43;97524.78;5044820;28;20404;-44
2021/09/05 02:56:34;;;;;;;7.15;4.00;;;;;;;17.92;55.90;97525.91;5045304;28;20737;-42
2021/09/05 02:59:00;;;;;;;6.25;4.20;;;;;;;17.75;55.95;97527.25;5044575;28;20497;-41
2021/09/05 03:01:25;;;;;;;6.28;4.13;;;;;;;17.26;57.65;97527.34;5044988;28;20103;-45
2021/09/05 03:03:50;;;;;;;7.78;4.55;;;;;;;16.98;58.19;97518.84;5044868;28;20052;-41
2021/09/05 03:06:17;;;;;;;9.32;4.60;;;;;;;16.96;58.28;97525.72;5045682;28;20036;-43
2021/09/05 03:08:43;;;;;;;9.13;4.70;;;;;;;17.26;57.76;97527.34;5061456;28;20484;-41
2021/09/05 03:11:08;;;;;;;6.68;4.35;;;;;;;17.61;56.69;97526.34;5045378;28;20052;-41
2021/09/05 03:13:33;;;;;;;6.80;4.25;;;;;;;17.77;56.32;97526.94;5045868;28;20021;-42
2021/09/05 03:15:59;;;;;;;6.18;4.03;;;;;;;17.83;56.14;97524.97;5045654;28;20040;-41
2021/09/05 03:18:24;;;;;;;7.40;4.30;;;;;;;17.93;55.96;97531.09;5045704;28;20135;-41
2021/09/05 03:20:50;;;;;;;5.65;3.80;;;;;;;18.01;55.79;97529.59;5044822;28;20025;-41
2021/09/05 03:23:15;;;;;;;6.50;4.18;;;;;;;17.83;56.13;97533.97;5047246;28;20055;-41
2021/09/05 03:25:40;;;;;;;8.02;5.07;;;;;;;17.89;56.13;97537.47;5042859;28;20021;-43
2021/09/05 03:28:06;;;;;;;7.82;4.40;;;;;;;17.80;56.35;97534.59;5043805;28;20515;-44
2021/09/05 03:30:32;;;;;;;7.88;4.38;;;;;;;18.03;55.64;97534.78;5036120;28;20103;-42
2021/09/05 03:32:57;;;;;;;8.07;3.88;;;;;;;18.05;55.77;97541.59;5043277;28;20048;-43
2021/09/05 03:35:22;;;;;;;7.97;4.45;;;;;;;17.52;56.60;97534.41;5043381;28;20056;-42
2021/09/05 03:37:48;;;;;;;10.23;4.47;;;;;;;17.28;57.30;97536.06;5045486;28;20078;-44
2021/09/05 03:40:14;;;;;;;7.07;4.18;;;;;;;17.60;56.64;97539.22;5044040;28;20025;-42
2021/09/05 03:42:39;;;;;;;6.68;4.13;;;;;;;17.76;56.13;97534.34;5062202;28;20021;-43
2021/09/05 03:45:05;;;;;;;6.03;4.00;;;;;;;17.98;55.84;97537.63;5061614;28;20036;-43
2021/09/05 03:47:30;;;;;;;8.90;4.53;;;;;;;17.37;57.09;97532.66;5042824;28;20125;-42
2021/09/05 03:49:55;;;;;;;7.05;4.47;;;;;;;17.13;58.31;97533.47;5044871;28;20061;-42
2021/09/05 03:52:21;;;;;;;7.13;4.15;;;;;;;17.15;58.04;97531.28;5044167;28;20481;-45
2021/09/05 03:54:46;;;;;;;6.65;4.25;;;;;;;17.03;58.36;97528.94;5044775;28;20104;-45
2021/09/05 03:57:12;;;;;;;8.85;4.43;;;;;;;17.01;58.18;97528.41;5042607;28;20025;-42
2021/09/05 03:59:37;;;;;;;9.23;4.82;;;;;;;17.02;58.09;97525.38;5045190;28;20033;-46
2021/09/05 04:02:03;;;;;;;6.47;4.05;;;;;;;16.95;58.73;97529.56;5043562;28;20027;-43
2021/09/05 04:04:28;;;;;;;5.78;3.90;;;;;;;16.95;59.00;97532.31;5044406;28;20903;-41
2021/09/05 04:07:02;;;;;;;6.07;4.25;;;;;;;16.88;59.03;97527.19;5048696;28;20034;-45
2021/09/05 04:12:15;;;;;;;7.93;4.55;;;;;;;16.84;58.97;97531.59;5043969;28;20064;-43
2021/09/05 04:14:40;;;;;;;11.93;5.13;;;;;;;16.99;58.28;97528.69;5045318;28;20025;-42
2021/09/05 04:17:06;;;;;;;7.30;4.20;;;;;;;17.49;56.76;97527.59;5043417;28;20024;-45
2021/09/05 04:19:31;;;;;;;7.90;4.32;;;;;;;17.54;56.56;97530.25;5048610;28;20025;-43
2021/09/05 04:21:57;;;;;;;7.25;4.22;;;;;;;17.23;57.58;97533.38;5044440;28;20037;-41
2021/09/05 04:24:22;;;;;;;7.60;4.00;;;;;;;17.09;58.17;97537.91;5044534;28;20029;-41
2021/09/05 04:26:48;;;;;;;6.40;4.18;;;;;;;16.97;58.57;97539.13;5044015;28;20055;-42
2021/09/05 04:29:13;;;;;;;9.43;4.50;;;;;;;16.68;59.39;97539.94;5044430;28;20500;-43
2021/09/05 04:31:39;;;;;;;7.13;4.03;;;;;;;16.73;59.29;97545.34;5044258;28;20511;-42
2021/09/05 04:34:04;;;;;;;6.72;4.32;;;;;;;16.85;59.01;97550.44;5040285;28;20028;-44
2021/09/05 04:36:30;;;;;;;6.47;4.03;;;;;;;17.34;57.55;97545.03;5044477;28;20028;-43
2021/09/05 04:38:55;;;;;;;7.20;3.90;;;;;;;17.68;56.55;97551.44;5042867;28;20017;-41
2021/09/05 04:41:20;;;;;;;6.05;3.75;;;;;;;17.81;56.30;97553.44;5046416;28;20623;-41
2021/09/05 04:43:46;;;;;;;6.07;3.90;;;;;;;17.65;56.71;97547.34;5044865;28;20061;-42
2021/09/05 04:46:11;;;;;;;6.20;3.92;;;;;;;17.77;56.61;97555.13;5043269;28;20045;-42
2021/09/05 04:48:36;;;;;;;6.40;3.72;;;;;;;17.80;56.34;97562.75;5031732;28;20065;-41
2021/09/05 04:51:02;;;;;;;6.68;4.18;;;;;;;17.47;57.17;97567.31;5034518;28;20164;-41
2021/09/05 04:53:27;;;;;;;6.70;3.75;;;;;;;17.23;57.88;97570.84;5029853;28;20059;-43
2021/09/05 04:55:52;;;;;;;7.20;4.13;;;;;;;16.95;58.60;97573.31;5049412;28;20029;-42
2021/09/05 04:58:18;;;;;;;7.25;4.03;;;;;;;17.10;58.12;97575.13;5033353;28;20519;-42
2021/09/05 05:00:43;;;;;;;6.28;3.70;;;;;;;17.59;56.86;97583.31;5035239;28;20602;-42
2021/09/05 05:03:08;;;;;;;6.10;3.88;;;;;;;17.76;56.32;97582.84;5031193;28;20083;-43
2021/09/05 05:05:34;;;;;;;8.15;4.30;;;;;;;17.85;56.20;97583.81;5044151;28;20060;-41
2021/09/05 05:07:59;;;;;;;7.57;4.10;;;;;;;17.87;56.04;97589.78;5057163;28;20100;-42
2021/09/05 05:10:24;;;;;;;6.80;4.00;;;;;;;17.73;56.53;97600.63;5047878;28;20039;-42
2021/09/05 05:12:50;;;;;;;5.75;3.67;;;;;;;17.76;56.41;97602.00;5048144;28;20025;-45
2021/09/05 05:15:15;;;;;;;6.88;3.70;;;;;;;17.71;56.72;97610.25;5048145;28;20029;-42
2021/09/05 05:17:40;;;;;;;7.72;3.92;;;;;;;17.82;56.46;97614.50;5048139;28;20424;-42
2021/09/05 05:20:06;;;;;;;6.53;4.30;;;;;;;17.76;56.62;97607.47;5046287;28;20052;-41
2021/09/05 05:22:32;;;;;;;6.22;4.22;;;;;;;17.99;55.99;97614.00;5045983;28;20029;-42
2021/09/05 05:24:57;;;;;;;5.85;3.47;;;;;;;18.03;55.82;97615.03;5041991;28;20041;-41
2021/09/05 05:27:22;;;;;;;7.28;3.72;;;;;;;17.92;56.23;97610.84;5036738;28;20028;-42
2021/09/05 05:29:47;;;;;;;5.82;3.90;;;;;;;17.78;56.40;97617.03;5032626;28;20124;-43
2021/09/05 05:32:13;;;;;;;6.32;4.18;;;;;;;17.77;56.62;97618.13;5047407;28;20028;-41
2021/09/05 05:34:39;;;;;;;6.60;4.15;;;;;;;17.42;57.27;97621.00;5050589;28;20025;-42
2021/09/05 05:37:04;;;;;;;5.47;3.55;;;;;;;17.16;58.48;97626.75;5048831;28;20438;-41
2021/09/05 05:39:30;;;;;;;6.63;4.35;;;;;;;17.15;58.35;97621.56;5049338;28;20017;-43
2021/09/05 05:41:56;;;;;;;6.80;4.53;;;;;;;17.33;57.81;97613.72;5052619;28;20057;-43
2021/09/05 05:44:21;;;;;;;7.75;4.47;;;;;;;17.32;57.82;97621.09;5047704;28;20801;-42
2021/09/05 05:46:46;;;;;;;6.80;3.97;;;;;;;17.38;57.67;97622.69;5047992;28;20538;-43
2021/09/05 05:49:11;;;;;;;6.40;4.38;;;;;;;17.55;57.32;97624.16;5042992;28;20523;-43
2021/09/05 05:51:37;;;;;;;6.60;4.32;;;;;;;17.67;56.92;97621.81;5040778;28;20029;-43
2021/09/05 05:54:02;;;;;;;6.85;4.32;;;;;;;17.71;56.95;97621.22;5037683;28;20032;-43
2021/09/05 05:56:28;;;;;;;7.78;4.55;;;;;;;17.78;56.86;97614.28;5044939;28;20021;-41
2021/09/05 05:58:53;;;;;;;8.10;4.70;;;;;;;17.48;58.25;97620.94;5044332;28;20037;-43
2021/09/05 06:01:18;;;;;;;6.75;4.70;;;;;;;17.46;58.10;97613.03;5043736;28;20029;-40
2021/09/05 06:03:44;;;;;;;7.85;4.78;;;;;;;17.64;57.81;97619.66;5035223;28;20488;-41
2021/09/05 06:06:09;;;;;;;6.68;4.32;;;;;;;18.17;56.20;97617.91;5058901;28;20094;-42
2021/09/05 06:08:34;;;;;;;5.93;3.83;;;;;;;18.43;55.44;97619.47;5055207;28;20140;-44
2021/09/05 06:11:00;;;;;;;7.63;4.03;;;;;;;18.52;55.12;97620.41;5044287;28;20033;-41
2021/09/05 06:13:25;;;;;;;7.05;4.50;;;;;;;18.55;54.97;97617.09;5037271;28;20164;-41
2021/09/05 06:15:51;;;;;;;6.70;4.10;;;;;;;18.62;54.97;97618.63;5033617;28;20781;-44
2021/09/05 06:18:16;;;;;;;8.88;4.22;;;;;;;18.68;54.61;97622.88;5029656;28;20643;-42
2021/09/05 06:20:41;;;;;;;6.60;4.20;;;;;;;18.72;54.64;97624.75;5043682;28;20039;-43
2021/09/05 06:23:07;;;;;;;6.95;4.20;;;;;;;18.75;54.81;97625.28;5039332;28;20016;-41
2021/09/05 06:25:32;;;;;;;7.45;4.18;;;;;;;18.80;54.56;97617.75;5042395;28;20025;-41
2021/09/05 06:27:57;;;;;;;7.20;4.05;;;;;;;18.84;54.46;97613.28;5034967;28;20028;-42
2021/09/05 06:30:23;;;;;;;6.50;4.20;;;;;;;18.85;54.63;97619.59;5026983;28;20547;-43
2021/09/05 06:32:48;;;;;;;5.60;3.63;;;;;;;18.93;54.57;97618.09;5034680;28;20029;-53
2021/09/05 06:35:13;;;;;;;9.60;5.07;;;;;;;19.11;54.48;97624.69;5040731;28;20407;-50
2021/09/05 06:37:39;;;;;;;8.68;4.50;;;;;;;19.24;54.17;97623.88;5034626;28;20017;-54
2021/09/05 06:40:05;;;;;;;8.02;4.68;;;;;;;19.28;54.26;97628.78;5039828;28;20057;-49
2021/09/05 06:42:30;;;;;;;6.78;4.03;;;;;;;19.33;54.37;97634.16;5053980;28;20377;-49
2021/09/05 06:44:56;;;;;;;6.63;3.85;;;;;;;19.33;54.34;97629.50;5044882;28;20086;-51
2021/09/05 06:47:21;;;;;;;7.53;4.22;;;;;;;19.37;54.45;97637.94;5036505;28;20735;-47
2021/09/05 06:49:47;;;;;;;7.25;4.45;;;;;;;19.19;55.31;97632.22;5046121;28;20024;-43
2021/09/05 06:52:12;;;;;;;6.43;4.30;;;;;;;19.18;55.19;97630.59;5043739;28;20016;-42
2021/09/05 06:54:38;;;;;;;7.75;4.18;;;;;;;19.22;54.90;97639.03;5039119;28;20035;-45
2021/09/05 06:57:04;;;;;;;7.40;3.70;;;;;;;19.23;55.24;97635.16;5048973;28;20029;-42
2021/09/05 06:59:30;;;;;;;5.93;4.05;;;;;;;19.25;55.63;97641.19;5045858;28;20033;-43
2021/09/05 07:01:55;;;;;;;9.38;4.43;;;;;;;19.25;56.01;97641.19;5047165;28;20086;-44
2021/09/05 07:04:21;;;;;;;6.80;4.20;;;;;;;19.00;56.86;97639.66;5042125;28;20108;-43
2021/09/05 07:06:46;;;;;;;6.38;3.80;;;;;;;19.12;56.47;97645.50;5047225;28;20024;-43
2021/09/05 07:09:12;;;;;;;7.82;4.22;;;;;;;19.16;56.38;97634.75;5041529;28;20431;-44
2021/09/05 07:11:37;;;;;;;7.25;4.25;;;;;;;19.14;56.39;97640.53;5032109;28;20037;-43
2021/09/05 07:14:02;;;;;;;7.75;4.38;;;;;;;19.08;56.31;97641.75;5023955;28;20093;-45
2021/09/05 07:16:28;;;;;;;7.13;4.35;;;;;;;19.19;55.89;97643.19;5046938;28;20020;-44
2021/09/05 07:18:53;;;;;;;7.43;4.65;;;;;;;19.26;55.87;97641.97;5045337;28;20025;-42
2021/09/05 07:21:19;;;;;;;6.70;4.28;;;;;;;19.22;55.79;97648.09;5044244;28;20021;-42
2021/09/05 07:23:44;;;;;;;7.68;4.53;;;;;;;19.25;55.98;97646.66;5041926;28;20025;-43
2021/09/05 07:26:10;;;;;;;6.90;4.43;;;;;;;19.31;55.79;97650.94;5039582;28;20021;-43
2021/09/05 07:28:36;;;;;;;8.15;4.18;;;;;;;19.28;55.75;97654.31;5045120;28;20052;-45
2021/09/05 07:31:03;;;;;;;6.13;3.90;;;;;;;19.31;55.85;97655.63;5038186;28;20396;-45
2021/09/05 07:33:28;;;;;;;6.95;4.72;;;;;;;19.26;56.53;97653.78;5035417;28;20020;-42
2021/09/05 07:35:54;;;;;;;5.82;4.05;;;;;;;19.20;56.60;97660.50;5038224;28;20570;-44
2021/09/05 07:38:19;;;;;;;7.22;4.30;;;;;;;19.23;56.05;97660.69;5038926;28;20014;-42
2021/09/05 07:40:45;;;;;;;6.88;4.10;;;;;;;19.11;56.03;97657.59;5033036;28;20629;-42
2021/09/05 07:43:10;;;;;;;6.10;4.35;;;;;;;19.24;55.68;97654.06;5048922;28;20103;-42
2021/09/05 07:45:36;;;;;;;6.97;4.15;;;;;;;19.33;55.51;97656.13;5032616;28;20423;-42
2021/09/05 07:48:01;;;;;;;6.47;3.97;;;;;;;19.33;55.72;97661.63;5031651;28;20074;-41
2021/09/05 07:50:27;;;;;;;6.60;4.30;;;;;;;19.28;55.90;97664.47;5037704;28;20028;-44
2021/09/05 07:52:52;;;;;;;6.30;4.20;;;;;;;19.27;56.21;97663.63;5042433;28;20042;-46
2021/09/05 07:55:17;;;;;;;7.07;4.57;;;;;;;19.34;55.95;97664.06;5038464;28;20705;-43
2021/09/05 07:57:43;;;;;;;8.23;4.38;;;;;;;19.36;56.00;97669.25;5046427;28;20774;-47
2021/09/05 08:00:09;;;;;;;8.10;4.68;;;;;;;19.33;56.30;97665.19;5038696;28;20567;-42
2021/09/05 08:02:34;;;;;;;7.00;3.95;;;;;;;19.42;55.55;97675.47;5042171;28;20032;-47
2021/09/05 08:04:59;;;;;;;17.88;9.57;;;;;;;19.44;55.36;97670.47;5037304;28;20075;-45
2021/09/05 08:07:25;;;;;;;16.65;10.15;;;;;;;19.41;55.86;97674.66;5045040;28;20032;-44
2021/09/05 08:09:50;;;;;;;13.70;9.88;;;;;;;19.40;55.69;97675.78;5043169;28;20036;-42
2021/09/05 08:12:15;;;;;;;11.75;7.60;;;;;;;19.43;55.79;97677.91;5042324;28;20033;-44
2021/09/05 08:14:41;;;;;;;9.43;6.28;;;;;;;19.48;55.16;97680.56;5051681;28;20028;-43
2021/09/05 08:17:06;;;;;;;9.93;5.47;;;;;;;19.43;55.68;97677.09;5041126;28;20565;-44
2021/09/05 08:19:31;;;;;;;8.68;4.43;;;;;;;19.43;55.44;97680.66;5043344;28;20440;-44
2021/09/05 08:21:57;;;;;;;6.53;4.35;;;;;;;19.47;55.48;97681.66;5046714;28;20040;-42
2021/09/05 08:24:22;;;;;;;7.95;4.13;;;;;;;19.59;54.91;97683.94;5044177;28;20036;-44
2021/09/05 08:26:48;;;;;;;6.45;4.05;;;;;;;19.56;54.97;97683.69;5054019;28;20028;-44
2021/09/05 08:29:13;;;;;;;6.30;4.20;;;;;;;19.56;55.08;97687.28;5044148;28;20068;-42
2021/09/05 08:31:38;;;;;;;7.55;4.35;;;;;;;19.52;55.38;97689.00;5054265;28;20060;-46
2021/09/05 08:34:05;;;;;;;6.65;3.97;;;;;;;19.63;55.12;97684.94;5057463;28;20034;-47
2021/09/05 08:36:31;;;;;;;5.93;3.90;;;;;;;19.74;54.60;97688.31;5049535;28;20086;-42
2021/09/05 08:38:57;;;;;;;8.00;4.38;;;;;;;19.74;54.72;97692.97;5047504;28;20021;-41
2021/09/05 08:41:26;;;;;;;7.38;3.83;;;;;;;19.71;54.24;97688.91;5050421;28;20024;-43
2021/09/05 08:43:51;;;;;;;5.50;3.75;;;;;;;19.73;54.47;97694.94;5046266;28;20009;-43
2021/09/05 08:46:17;;;;;;;7.07;4.07;;;;;;;19.75;54.56;97691.84;5042476;28;20100;-42
2021/09/05 08:48:43;;;;;;;5.93;3.80;;;;;;;19.73;54.81;97700.44;5042315;28;20642;-42
2021/09/05 08:51:09;;;;;;;8.35;4.20;;;;;;;19.77;54.59;97695.13;5060948;28;20025;-44
2021/09/05 08:53:35;;;;;;;6.72;4.05;;;;;;;19.81;54.53;97700.81;5062797;28;20032;-42
2021/09/05 08:56:01;;;;;;;6.82;4.28;;;;;;;19.83;54.83;97699.38;5051223;28;20028;-45
2021/09/05 08:58:26;;;;;;;6.78;4.60;;;;;;;19.86;55.00;97703.44;5051183;28;20033;-44
2021/09/05 09:00:51;;;;;;;6.35;3.88;;;;;;;19.90;55.00;97712.72;5039460;28;20025;-43
2021/09/05 09:03:21;;;;;;;6.95;3.97;;;;;;;19.91;54.80;97708.88;5057152;28;20054;-43
2021/09/05 09:05:51;;;;;;;6.15;3.83;;;;;;;19.87;55.36;97710.59;5062554;28;20021;-44
2021/09/05 09:08:16;;;;;;;7.88;4.20;;;;;;;19.90;55.62;97709.97;5061113;28;20033;-41
2021/09/05 09:11:03;;;;;;;6.03;4.10;;;;;;;19.96;55.23;97711.50;5053874;28;20043;-41
2021/09/05 09:13:29;;;;;;;6.93;3.88;;;;;;;20.02;55.34;97717.75;5037774;28;20056;-44
2021/09/05 09:15:56;;;;;;;7.25;4.40;;;;;;;20.25;53.83;97717.81;5047087;28;20566;-44
2021/09/05 09:18:27;;;;;;;7.72;4.68;;;;;;;20.37;53.81;97720.03;5043734;28;20385;-43
2021/09/05 09:20:54;;;;;;;5.82;4.05;;;;;;;20.35;54.00;97719.56;5045603;28;20025;-42
2021/09/05 09:23:25;;;;;;;7.90;4.53;;;;;;;20.25;54.67;97723.31;5045810;28;20148;-43
2021/09/05 09:26:02;;;;;;;6.75;4.25;;;;;;;20.24;54.42;97718.94;5050631;28;20171;-43
2021/09/05 09:28:28;;;;;;;7.03;4.55;;;;;;;20.35;55.22;97719.56;5042317;28;20024;-40
2021/09/05 09:30:57;;;;;;;8.32;4.65;;;;;;;20.36;54.47;97716.50;5047686;28;20024;-40
2021/09/05 09:33:25;;;;;;;10.02;4.07;;;;;;;20.30;54.65;97717.72;5041130;28;20745;-45
2021/09/05 09:35:53;;;;;;;8.25;4.00;;;;;;;20.32;54.64;97717.41;5041812;28;20083;-48
2021/09/05 09:38:19;;;;;;;7.22;4.68;;;;;;;20.27;55.03;97716.41;5044572;28;20090;-40
2021/09/05 09:40:47;;;;;;;22.95;7.28;;;;;;;20.34;55.29;97712.44;5053590;28;20017;-41
2021/09/05 09:43:21;;;;;;;25.85;9.93;;;;;;;20.35;54.88;97708.56;5042275;28;20032;-41
2021/09/05 09:45:47;;;;;;;22.55;9.75;;;;;;;20.30;55.04;97708.66;5044010;28;20032;-43
2021/09/05 09:48:26;;;;;;;16.58;7.45;;;;;;;20.36;54.96;97702.75;5051275;28;20502;-42
2021/09/05 09:51:00;;;;;;;12.50;5.70;;;;;;;20.34;55.42;97704.19;5048045;28;20075;-39
2021/09/05 09:53:26;;;;;;;8.48;5.00;;;;;;;20.39;55.26;97709.56;5064693;28;20040;-44
2021/09/05 09:55:51;;;;;;;9.00;5.10;;;;;;;20.42;55.37;97708.13;5060570;28;20067;-42
2021/09/05 09:58:17;;;;;;;8.70;4.55;;;;;;;20.40;55.39;97703.75;5053709;28;20047;-39
2021/09/05 10:00:42;;;;;;;7.25;4.55;;;;;;;20.46;55.47;97703.63;5050181;28;20024;-39
2021/09/05 10:03:08;;;;;;;6.50;4.50;;;;;;;20.53;55.20;97704.03;5053788;28;20061;-37
2021/09/05 10:05:34;;;;;;;6.07;4.07;;;;;;;20.48;55.60;97693.94;5052352;28;20039;-39
2021/09/05 10:08:00;;;;;;;6.97;4.38;;;;;;;20.54;55.13;97695.44;5048544;28;20108;-44
2021/09/05 10:10:26;;;;;;;7.43;4.72;;;;;;;20.66;55.01;97692.19;5046526;28;20407;-44
2021/09/05 10:12:54;;;;;;;12.55;8.57;;;;;;;20.75;54.64;97688.69;5063497;28;20514;-42
2021/09/05 10:15:20;;;;;;;7.85;4.32;;;;;;;20.74;54.41;97692.53;5058915;28;20035;-38
2021/09/05 10:17:46;;;;;;;7.25;4.68;;;;;;;20.65;54.66;97681.47;5038786;28;20025;-39
2021/09/05 10:20:11;;;;;;;7.30;4.78;;;;;;;20.72;54.44;97692.88;5051325;28;20029;-41
2021/09/05 10:22:37;;;;;;;9.00;5.50;;;;;;;20.84;53.82;97686.81;5046473;28;20503;-41
2021/09/05 10:25:04;;;;;;;6.40;4.55;;;;;;;20.92;53.65;97685.25;5043300;28;20029;-45
2021/09/05 10:27:34;;;;;;;8.38;4.63;;;;;;;20.88;53.61;97684.25;5045108;28;20770;-44
2021/09/05 10:30:08;;;;;;;9.80;4.88;;;;;;;20.84;53.76;97685.97;5050609;28;20033;-48
2021/09/05 10:32:43;;;;;;;9.27;5.35;;;;;;;20.88;53.63;97689.78;5051227;28;20503;-43
2021/09/05 10:35:27;;;;;;;8.88;4.82;;;;;;;20.88;53.65;97690.59;5046394;28;20033;-40
2021/09/05 10:38:22;;;;;;;6.75;4.85;;;;;;;20.95;53.08;97689.31;5050203;28;20027;-47
2021/09/05 10:40:58;;;;;;;6.40;4.28;;;;;;;20.99;53.15;97685.66;5044639;28;20043;-48
2021/09/05 10:43:53;;;;;;;6.13;4.35;;;;;;;20.97;52.86;97685.13;5045255;28;20055;-47
2021/09/05 10:46:20;;;;;;;6.35;4.78;;;;;;;21.06;52.71;97687.97;5047781;28;20511;-46
2021/09/05 10:48:46;;;;;;;6.82;4.65;;;;;;;21.23;51.18;97689.19;5049995;28;20137;-45
2021/09/05 10:51:17;;;;;;;8.50;5.00;;;;;;;21.41;50.33;97696.41;5045408;28;20074;-46
2021/09/05 10:53:55;;;;;;;13.95;4.97;;;;;;;21.24;50.93;97697.16;5040780;28;20032;-45
2021/09/05 10:56:21;;;;;;;11.52;4.63;;;;;;;21.16;51.47;97700.66;5046914;28;20071;-50
2021/09/05 10:58:48;;;;;;;10.68;5.18;;;;;;;21.20;51.95;97692.56;5048926;28;20768;-44
2021/09/05 11:01:25;;;;;;;10.45;5.78;;;;;;;21.23;52.23;97692.75;5046996;28;20050;-48
2021/09/05 11:04:12;;;;;;;11.25;4.68;;;;;;;21.03;53.60;97697.66;5041816;28;20033;-42
2021/09/05 11:10:47;;;;;;;8.32;4.70;;;;;;;20.65;53.79;97698.78;5097746;27;20961;-58
2021/09/05 11:13:48;;;;;;;9.30;4.70;;;;;;;20.09;54.55;97706.34;5100108;28;20043;-58
2021/09/05 11:16:15;;;;;;;7.30;4.25;;;;;;;19.81;55.76;97707.13;5088432;28;20027;-60
2021/09/05 11:18:42;;;;;;;7.75;4.85;;;;;;;19.70;56.19;97694.69;5097039;28;20027;-58
2021/09/05 11:21:21;;;;;;;9.15;4.30;;;;;;;19.68;56.24;97695.00;5102159;28;20027;-60
2021/09/05 11:23:47;;;;;;;7.97;4.90;;;;;;;19.72;55.62;97693.28;5086185;28;20036;-63
2021/09/05 11:26:13;;;;;;;6.35;4.65;;;;;;;19.81;54.83;97698.88;5090995;28;20023;-62
2021/09/05 11:28:38;;;;;;;6.80;4.18;;;;;;;19.73;54.91;97699.59;5094550;27;20787;-63
2021/09/05 11:31:04;;;;;;;6.13;4.22;;;;;;;19.73;55.13;97703.16;5097042;28;20027;-61
2021/09/05 11:33:30;;;;;;;7.70;4.47;;;;;;;19.74;55.11;97696.56;5098121;28;20042;-47
2021/09/05 11:35:57;;;;;;;10.82;4.75;;;;;;;19.69;55.45;97693.09;5090429;28;20028;-63